Time;durP1;ratioP1;P1;durP2;ratioP2;P2;SDS_P1;SDS_P2;PMS_P1;PMS_P2;Temp;Humidity;BMP_temperature;BMP_pressure;BME280_temperature;BME280_humidity;BME280_pressure;Samples;Min_cycle;Max_cycle;Signal;HPM_P1;HPM_P2
2022/06/30 00:03:41;;;;;;;10.93;9.10;;;;;;;;;;10276386;28;20128;-80
2022/06/30 00:08:43;;;;;;;11.85;10.35;;;;;;;;;;10269641;28;20289;-82
2022/06/30 00:13:44;;;;;;;12.40;10.07;;;;;;;;;;10276577;28;20134;-78
2022/06/30 00:18:45;;;;;;;10.30;8.70;;;;;;;;;;10258046;28;20034;-78
2022/06/30 00:23:46;;;;;;;11.82;10.45;;;;;;;;;;10270201;28;20047;-78
2022/06/30 00:28:47;;;;;;;11.63;9.47;;;;;;;;;;10265807;28;20070;-79
2022/06/30 00:33:49;;;;;;;10.43;8.98;;;;;;;;;;10290397;28;20314;-80
2022/06/30 00:38:50;;;;;;;12.52;10.40;;;;;;;;;;10269034;28;20055;-80
2022/06/30 00:43:52;;;;;;;12.70;9.90;;;;;;;;;;10288203;28;20043;-81
2022/06/30 00:48:54;;;;;;;11.63;9.67;;;;;;;;;;10281311;28;20055;-79
2022/06/30 00:53:56;;;;;;;10.65;8.88;;;;;;;;;;10276051;28;20301;-80
2022/06/30 00:59:00;;;;;;;12.33;9.87;;;;;;;;;;10276585;28;20055;-80
2022/06/30 01:04:00;;;;;;;13.23;10.43;;;;;;;;;;10278401;28;20043;-80
2022/06/30 01:09:01;;;;;;;10.35;9.00;;;;;;;;;;10274539;28;20141;-80
2022/06/30 01:14:02;;;;;;;11.70;9.40;;;;;;;;;;10293901;28;20078;-78
2022/06/30 01:19:02;;;;;;;12.43;9.43;;;;;;;;;;10317012;28;20270;-78
2022/06/30 01:24:04;;;;;;;12.37;9.23;;;;;;;;;;10308201;28;20031;-79
2022/06/30 01:29:05;;;;;;;14.30;9.40;;;;;;;;;;10273646;28;20270;-81
2022/06/30 01:34:09;;;;;;;12.80;9.93;;;;;;;;;;10292518;28;20043;-80
2022/06/30 01:39:10;;;;;;;11.33;9.30;;;;;;;;;;10282302;28;20089;-79
2022/06/30 01:44:11;;;;;;;10.17;9.07;;;;;;;;;;10286483;28;20616;-79
2022/06/30 01:49:11;;;;;;;10.43;8.70;;;;;;;;;;10288807;28;20597;-80
2022/06/30 01:54:12;;;;;;;12.50;9.38;;;;;;;;;;10286622;28;20049;-80
2022/06/30 01:59:13;;;;;;;12.98;9.88;;;;;;;;;;10281780;28;20094;-80
2022/06/30 02:09:33;;;;;;;15.30;11.07;;;;;;;;;;10291312;28;20066;-80
2022/06/30 02:14:33;;;;;;;13.07;10.90;;;;;;;;;;10294446;28;20138;-80
2022/06/30 02:19:35;;;;;;;13.80;11.65;;;;;;;;;;10295941;28;20267;-80
2022/06/30 02:24:35;;;;;;;11.90;10.43;;;;;;;;;;10291219;28;20500;-79
2022/06/30 02:29:36;;;;;;;14.32;11.90;;;;;;;;;;10299345;28;20062;-80
2022/06/30 02:34:37;;;;;;;13.48;11.23;;;;;;;;;;10285114;28;20057;-81
2022/06/30 02:39:37;;;;;;;13.75;11.85;;;;;;;;;;10286307;28;20042;-81
2022/06/30 02:44:39;;;;;;;15.70;12.65;;;;;;;;;;10299282;28;20511;-82
2022/06/30 02:49:39;;;;;;;15.85;12.38;;;;;;;;;;10286383;28;20098;-81
2022/06/30 02:54:40;;;;;;;12.45;11.05;;;;;;;;;;10285296;28;20058;-80
2022/06/30 02:59:41;;;;;;;14.40;12.47;;;;;;;;;;10271421;28;20062;-80
2022/06/30 03:04:41;;;;;;;17.23;13.63;;;;;;;;;;10274812;28;20277;-81
2022/06/30 03:09:43;;;;;;;13.52;12.07;;;;;;;;;;10263113;28;20062;-79
2022/06/30 03:14:43;;;;;;;14.47;12.50;;;;;;;;;;10272603;28;20474;-80
2022/06/30 03:19:44;;;;;;;15.63;13.57;;;;;;;;;;10302195;28;20051;-80
2022/06/30 03:24:45;;;;;;;14.85;11.80;;;;;;;;;;10306829;28;20298;-81
2022/06/30 03:29:46;;;;;;;15.60;13.88;;;;;;;;;;10272327;28;20051;-79
2022/06/30 03:34:48;;;;;;;15.32;13.35;;;;;;;;;;10267867;28;20051;-80
2022/06/30 03:39:51;;;;;;;16.15;14.40;;;;;;;;;;10284709;28;20039;-81
2022/06/30 03:44:52;;;;;;;16.70;13.85;;;;;;;;;;10307976;28;20387;-81
2022/06/30 03:49:53;;;;;;;13.52;12.00;;;;;;;;;;10287587;28;20082;-80
2022/06/30 03:54:54;;;;;;;15.95;13.20;;;;;;;;;;10282872;28;20069;-79
2022/06/30 03:59:54;;;;;;;14.82;13.27;;;;;;;;;;10271185;28;20046;-81
2022/06/30 04:04:55;;;;;;;17.27;13.82;;;;;;;;;;10277624;28;20035;-79
2022/06/30 04:09:56;;;;;;;15.38;12.65;;;;;;;;;;10292477;28;20051;-80
2022/06/30 04:14:56;;;;;;;18.58;14.65;;;;;;;;;;10295245;28;20502;-79
2022/06/30 04:19:56;;;;;;;15.53;13.43;;;;;;;;;;10295975;28;20051;-82
2022/06/30 04:24:57;;;;;;;13.90;12.15;;;;;;;;;;10263555;28;20293;-78
2022/06/30 04:29:57;;;;;;;15.00;13.20;;;;;;;;;;10269678;28;20430;-78
2022/06/30 04:34:58;;;;;;;17.43;13.73;;;;;;;;;;10281021;28;20047;-79
2022/06/30 04:45:18;;;;;;;18.23;14.50;;;;;;;;;;10297620;28;20044;-80
2022/06/30 04:50:20;;;;;;;17.27;14.10;;;;;;;;;;10286731;28;20043;-80
2022/06/30 04:55:20;;;;;;;17.52;13.70;;;;;;;;;;10281242;28;20429;-80
2022/06/30 05:00:24;;;;;;;13.57;12.15;;;;;;;;;;10280144;28;20038;-78
2022/06/30 05:05:27;;;;;;;13.05;11.65;;;;;;;;;;10259904;28;20465;-78
2022/06/30 05:10:27;;;;;;;15.18;13.48;;;;;;;;;;10289390;28;20070;-78
2022/06/30 05:15:28;;;;;;;14.57;13.02;;;;;;;;;;10306202;28;20023;-79
2022/06/30 05:20:28;;;;;;;14.60;12.40;;;;;;;;;;10299525;28;20063;-80
2022/06/30 05:30:48;;;;;;;15.07;13.45;;;;;;;;;;10285270;28;20186;-80
2022/06/30 05:35:50;;;;;;;17.40;14.38;;;;;;;;;;10288224;28;20042;-79
2022/06/30 05:40:50;;;;;;;17.08;15.07;;;;;;;;;;10286034;28;20055;-80
2022/06/30 05:45:53;;;;;;;17.58;15.05;;;;;;;;;;10269105;28;20054;-80
2022/06/30 05:50:53;;;;;;;18.40;15.40;;;;;;;;;;10266344;28;20057;-77
2022/06/30 05:55:53;;;;;;;19.80;15.80;;;;;;;;;;10265497;28;20382;-78
2022/06/30 06:00:54;;;;;;;19.52;15.27;;;;;;;;;;10279262;28;20354;-78
2022/06/30 06:05:54;;;;;;;17.67;15.20;;;;;;;;;;10276895;28;20039;-78
2022/06/30 06:10:55;;;;;;;17.33;15.17;;;;;;;;;;10276664;28;20398;-77
2022/06/30 06:15:55;;;;;;;15.00;13.35;;;;;;;;;;10277612;28;20266;-76
2022/06/30 06:20:56;;;;;;;22.45;16.08;;;;;;;;;;10272189;28;20059;-74
2022/06/30 06:25:56;;;;;;;14.80;13.30;;;;;;;;;;10277775;28;20486;-75
2022/06/30 06:30:57;;;;;;;17.05;14.50;;;;;;;;;;10269346;28;20153;-75
2022/06/30 06:35:57;;;;;;;17.13;14.83;;;;;;;;;;10267570;28;20051;-77
2022/06/30 06:40:58;;;;;;;13.52;11.82;;;;;;;;;;10271673;28;20352;-76
2022/06/30 06:45:58;;;;;;;15.50;13.60;;;;;;;;;;10277612;28;20058;-75
2022/06/30 06:50:59;;;;;;;14.25;12.50;;;;;;;;;;10272399;28;20055;-76
2022/06/30 06:56:00;;;;;;;14.13;12.55;;;;;;;;;;10297032;28;20146;-84
2022/06/30 07:01:00;;;;;;;14.88;12.20;;;;;;;;;;10289834;28;20486;-79
2022/06/30 07:06:01;;;;;;;11.75;10.32;;;;;;;;;;10280559;28;20505;-80
2022/06/30 07:11:03;;;;;;;12.43;10.93;;;;;;;;;;10290151;28;20069;-81
2022/06/30 07:16:05;;;;;;;13.63;11.20;;;;;;;;;;10292637;28;20551;-79
2022/06/30 07:21:06;;;;;;;12.05;9.95;;;;;;;;;;10296988;28;20046;-78
2022/06/30 07:26:06;;;;;;;12.20;10.63;;;;;;;;;;10261333;28;20047;-74
2022/06/30 07:31:08;;;;;;;14.32;11.45;;;;;;;;;;10259648;28;20358;-75
2022/06/30 07:36:09;;;;;;;;;;;;;;;;;;10258768;28;20561;-75
2022/06/30 07:41:09;;;;;;;11.27;9.53;;;;;;;;;;10266750;28;20010;-74
2022/06/30 07:46:10;;;;;;;14.55;10.18;;;;;;;;;;10275362;28;20082;-74
2022/06/30 07:51:10;;;;;;;10.48;8.77;;;;;;;;;;10260040;28;20821;-74
2022/06/30 07:56:12;;;;;;;10.00;8.37;;;;;;;;;;10271240;28;20098;-75
2022/06/30 08:01:12;;;;;;;11.90;9.15;;;;;;;;;;10267704;28;20404;-75
2022/06/30 08:06:13;;;;;;;10.33;9.17;;;;;;;;;;10268467;28;20043;-76
2022/06/30 08:11:13;;;;;;;11.82;9.23;;;;;;;;;;10268739;28;20062;-74
2022/06/30 08:16:15;;;;;;;10.15;8.85;;;;;;;;;;10264276;28;20430;-74
2022/06/30 08:21:16;;;;;;;9.27;8.38;;;;;;;;;;10263616;28;20042;-74
2022/06/30 08:26:16;;;;;;;10.13;9.00;;;;;;;;;;10273435;28;20109;-77
2022/06/30 08:31:16;;;;;;;12.13;8.70;;;;;;;;;;10267020;28;20055;-78
2022/06/30 08:36:18;;;;;;;11.45;8.32;;;;;;;;;;10269878;28;20051;-75
2022/06/30 08:46:38;;;;;;;9.00;8.20;;;;;;;;;;10270508;28;20143;-75
2022/06/30 08:51:43;;;;;;;8.60;7.80;;;;;;;;;;10273631;28;20053;-74
2022/06/30 08:56:44;;;;;;;10.80;8.25;;;;;;;;;;10272725;28;20071;-75
2022/06/30 09:01:44;;;;;;;10.47;9.17;;;;;;;;;;10276307;28;20614;-74
2022/06/30 09:06:45;;;;;;;8.00;7.17;;;;;;;;;;10275684;28;20043;-76
2022/06/30 09:11:46;;;;;;;9.10;8.17;;;;;;;;;;10271818;28;20044;-80
2022/06/30 09:16:53;;;;;;;9.15;7.03;;;;;;;;;;10273310;28;20119;-75
2022/06/30 09:22:07;;;;;;;7.63;6.93;;;;;;;;;;10276886;28;20114;-74
2022/06/30 09:27:29;;;;;;;8.13;7.30;;;;;;;;;;10277244;28;20047;-74
2022/06/30 09:32:29;;;;;;;8.63;7.47;;;;;;;;;;10287684;28;20126;-75
2022/06/30 09:37:30;;;;;;;8.07;7.37;;;;;;;;;;10272631;28;20054;-75
2022/06/30 09:42:38;;;;;;;9.53;7.10;;;;;;;;;;10269616;28;20048;-77
2022/06/30 09:47:51;;;;;;;7.43;6.53;;;;;;;;;;10267521;28;20047;-75
2022/06/30 09:53:09;;;;;;;7.18;6.55;;;;;;;;;;10266848;28;20359;-77
2022/06/30 09:58:11;;;;;;;8.52;6.57;;;;;;;;;;10269643;28;20141;-74
2022/06/30 10:03:12;;;;;;;6.97;6.28;;;;;;;;;;10276096;28;20054;-77
2022/06/30 10:08:14;;;;;;;7.83;5.60;;;;;;;;;;10269332;28;20046;-76
2022/06/30 10:13:17;;;;;;;7.15;6.45;;;;;;;;;;10270435;28;20051;-75
2022/06/30 10:18:18;;;;;;;8.15;6.20;;;;;;;;;;10265997;28;20445;-76
2022/06/30 10:23:21;;;;;;;7.10;6.40;;;;;;;;;;10269129;28;20118;-75
2022/06/30 10:28:22;;;;;;;6.95;6.25;;;;;;;;;;10254768;28;20121;-76
2022/06/30 10:33:35;;;;;;;6.57;5.93;;;;;;;;;;10283087;28;20042;-74
2022/06/30 10:38:39;;;;;;;6.57;5.72;;;;;;;;;;10260837;28;20448;-76
2022/06/30 10:43:58;;;;;;;6.57;5.90;;;;;;;;;;10273404;28;20042;-76
2022/06/30 10:48:58;;;;;;;7.78;6.40;;;;;;;;;;10280731;28;20149;-76
2022/06/30 10:53:59;;;;;;;7.40;6.47;;;;;;;;;;10276516;28;20057;-73
2022/06/30 10:59:07;;;;;;;6.50;5.77;;;;;;;;;;10266457;28;20043;-74
2022/06/30 11:04:09;;;;;;;6.18;5.57;;;;;;;;;;10272145;28;20043;-75
2022/06/30 11:09:10;;;;;;;7.15;6.13;;;;;;;;;;10259778;28;20059;-74
2022/06/30 11:14:10;;;;;;;7.87;6.10;;;;;;;;;;10271964;28;20050;-74
2022/06/30 11:19:14;;;;;;;6.47;5.77;;;;;;;;;;10271916;28;20059;-74
2022/06/30 11:24:18;;;;;;;8.80;6.18;;;;;;;;;;10271968;28;20122;-75
2022/06/30 11:29:19;;;;;;;6.68;5.78;;;;;;;;;;10265454;28;20043;-76
2022/06/30 11:34:20;;;;;;;6.83;6.20;;;;;;;;;;10276049;28;20454;-76
2022/06/30 11:39:20;;;;;;;5.78;5.25;;;;;;;;;;10268480;28;20047;-77
2022/06/30 11:44:25;;;;;;;9.47;5.87;;;;;;;;;;10263811;28;20686;-76
2022/06/30 11:49:27;;;;;;;6.65;6.00;;;;;;;;;;10269736;28;20047;-74
2022/06/30 11:54:30;;;;;;;7.03;5.82;;;;;;;;;;10268680;28;20126;-78
2022/06/30 11:59:31;;;;;;;8.43;5.93;;;;;;;;;;10272969;28;20035;-79
2022/06/30 12:04:33;;;;;;;6.10;5.18;;;;;;;;;;10270928;28;20518;-80
2022/06/30 12:09:33;;;;;;;8.13;5.43;;;;;;;;;;10275289;28;20055;-80
2022/06/30 12:14:38;;;;;;;7.60;5.72;;;;;;;;;;10277440;28;20051;-80
2022/06/30 12:19:41;;;;;;;6.47;5.38;;;;;;;;;;10279168;28;20046;-79
2022/06/30 12:24:44;;;;;;;6.63;5.25;;;;;;;;;;10269076;28;20054;-79
2022/06/30 12:29:54;;;;;;;6.18;5.57;;;;;;;;;;10278818;28;20051;-79
2022/06/30 12:34:56;;;;;;;7.40;6.50;;;;;;;;;;10276906;28;20137;-79
2022/06/30 12:39:57;;;;;;;7.18;6.47;;;;;;;;;;10288080;28;20097;-81
2022/06/30 12:44:58;;;;;;;6.72;6.03;;;;;;;;;;10284543;28;20051;-79
2022/06/30 12:50:18;;;;;;;6.03;5.43;;;;;;;;;;10308720;28;20051;-80
2022/06/30 12:55:20;;;;;;;7.07;5.13;;;;;;;;;;10318852;28;20058;-80
2022/06/30 13:00:20;;;;;;;7.97;6.00;;;;;;;;;;10307442;28;20102;-80
2022/06/30 13:05:22;;;;;;;6.20;5.60;;;;;;;;;;10297045;28;20049;-83
2022/06/30 13:11:04;;;;;;;7.63;6.20;;;;;;;;;;10314437;28;20594;-81
2022/06/30 13:15:44;;;;;;;7.17;5.83;;;;;;;;;;10284159;28;20130;-79
2022/06/30 13:20:45;;;;;;;6.97;5.80;;;;;;;;;;10310762;28;20054;-81
2022/06/30 13:25:48;;;;;;;6.65;5.82;;;;;;;;;;10307546;28;20042;-79
2022/06/30 13:30:49;;;;;;;5.88;5.28;;;;;;;;;;10322303;28;20039;-81
2022/06/30 13:35:49;;;;;;;6.40;5.32;;;;;;;;;;10312311;28;20046;-81
2022/06/30 13:40:50;;;;;;;6.83;5.73;;;;;;;;;;10306199;28;20047;-79
2022/06/30 13:45:52;;;;;;;7.03;6.00;;;;;;;;;;10282059;28;20046;-80
2022/06/30 13:50:53;;;;;;;5.75;5.10;;;;;;;;;;10278363;28;20555;-79
2022/06/30 13:55:54;;;;;;;5.30;4.80;;;;;;;;;;10282335;28;20049;-78
2022/06/30 14:00:54;;;;;;;5.67;4.77;;;;;;;;;;10272210;28;20038;-78
2022/06/30 14:05:55;;;;;;;7.65;5.43;;;;;;;;;;10291873;28;20442;-81
2022/06/30 14:10:56;;;;;;;5.88;4.68;;;;;;;;;;10287273;28;20180;-79
2022/06/30 14:15:59;;;;;;;5.17;4.63;;;;;;;;;;10298883;28;20043;-80
2022/06/30 14:21:02;;;;;;;6.63;4.60;;;;;;;;;;10290391;28;20086;-81
2022/06/30 14:26:05;;;;;;;7.13;4.88;;;;;;;;;;10282091;28;20047;-79
2022/06/30 14:31:05;;;;;;;5.57;4.63;;;;;;;;;;10289937;28;20518;-79
2022/06/30 14:36:17;;;;;;;6.43;4.72;;;;;;;;;;10276202;28;20565;-80
2022/06/30 14:42:43;;;;;;;6.55;4.70;;;;;;;;;;10292696;28;20050;-79
2022/06/30 14:46:38;;;;;;;6.07;4.80;;;;;;;;;;10312272;28;20038;-79
2022/06/30 14:51:39;;;;;;;5.00;4.60;;;;;;;;;;10306089;28;20055;-79
2022/06/30 14:56:39;;;;;;;;;;;;;;;;;;10294866;28;20031;-79
2022/06/30 15:01:40;;;;;;;5.18;4.65;;;;;;;;;;10284741;28;19914;-79
2022/06/30 15:06:40;;;;;;;;;;;;;;;;;;10301730;28;20062;-80
2022/06/30 15:11:41;;;;;;;5.68;4.70;;;;;;;;;;10296751;28;19937;-78
2022/06/30 15:16:41;;;;;;;7.35;4.70;;;;;;;;;;10312006;28;20105;-78
2022/06/30 15:27:01;;;;;;;7.20;4.30;;;;;;;;;;10289675;28;20035;-78
2022/06/30 15:32:03;;;;;;;5.60;4.80;;;;;;;;;;10278896;28;20042;-78
2022/06/30 15:37:04;;;;;;;7.82;4.53;;;;;;;;;;10292809;28;20043;-79
2022/06/30 15:42:07;;;;;;;;;;;;;;;;;;10270617;28;20098;-78
2022/06/30 15:47:08;;;;;;;4.95;4.40;;;;;;;;;;10290375;28;20290;-79
2022/06/30 15:52:09;;;;;;;6.18;4.72;;;;;;;;;;10294939;28;20043;-79
2022/06/30 15:57:14;;;;;;;6.60;5.03;;;;;;;;;;10300964;28;20058;-78
2022/06/30 16:02:15;;;;;;;5.03;4.15;;;;;;;;;;10288405;28;20034;-77
2022/06/30 16:07:18;;;;;;;5.40;4.70;;;;;;;;;;10286290;28;20062;-79
2022/06/30 16:12:18;;;;;;;6.20;4.57;;;;;;;;;;10280138;28;20447;-78
2022/06/30 16:17:18;;;;;;;;;;;;;;;;;;10265666;28;20039;-78
2022/06/30 16:22:19;;;;;;;5.78;4.40;;;;;;;;;;10286233;28;19981;-79
2022/06/30 16:27:19;;;;;;;;;;;;;;;;;;10283936;28;20102;-77
2022/06/30 16:32:19;;;;;;;7.30;4.60;;;;;;;;;;10263488;28;19937;-78
2022/06/30 16:37:20;;;;;;;5.27;4.53;;;;;;;;;;10252830;28;20044;-78
2022/06/30 16:42:21;;;;;;;6.40;4.85;;;;;;;;;;10266463;28;20050;-78
2022/06/30 16:47:21;;;;;;;6.60;4.73;;;;;;;;;;10263937;28;20106;-78
2022/06/30 16:52:22;;;;;;;6.10;4.60;;;;;;;;;;10255742;28;20574;-80
2022/06/30 16:57:22;;;;;;;4.90;4.40;;;;;;;;;;10274764;28;20083;-79
2022/06/30 17:02:23;;;;;;;5.13;4.40;;;;;;;;;;10264944;28;20040;-79
2022/06/30 17:07:26;;;;;;;7.30;4.70;;;;;;;;;;10261308;28;20165;-78
2022/06/30 17:12:27;;;;;;;8.10;4.95;;;;;;;;;;10273115;28;20084;-78
2022/06/30 17:17:27;;;;;;;7.93;6.05;;;;;;;;;;10243491;28;20063;-83
2022/06/30 17:22:29;;;;;;;8.30;6.05;;;;;;;;;;10272879;28;20109;-78
2022/06/30 17:27:29;;;;;;;4.37;4.00;;;;;;;;;;10272679;28;20145;-79
2022/06/30 17:32:30;;;;;;;5.50;4.30;;;;;;;;;;10278705;28;20435;-79
2022/06/30 17:37:31;;;;;;;5.32;4.80;;;;;;;;;;10309240;28;20106;-80
2022/06/30 17:42:32;;;;;;;6.32;4.30;;;;;;;;;;10301242;28;20062;-79
2022/06/30 17:47:32;;;;;;;5.17;4.30;;;;;;;;;;10325516;28;20126;-78
2022/06/30 17:52:32;;;;;;;4.57;4.17;;;;;;;;;;10302916;28;20071;-79
2022/06/30 17:57:33;;;;;;;5.00;4.10;;;;;;;;;;10312800;28;20051;-79
2022/06/30 18:02:33;;;;;;;4.93;4.00;;;;;;;;;;10282872;28;20054;-79
2022/06/30 18:12:53;;;;;;;7.13;5.15;;;;;;;;;;10263774;28;20053;-79
2022/06/30 18:17:53;;;;;;;6.50;4.60;;;;;;;;;;10274400;28;20043;-79
2022/06/30 18:22:57;;;;;;;8.20;6.88;;;;;;;;;;10286882;28;20054;-79
2022/06/30 18:27:57;;;;;;;8.07;6.07;;;;;;;;;;10283117;28;20058;-82
2022/06/30 18:32:59;;;;;;;;;;;;;;;;;;10298134;28;20042;-79
2022/06/30 18:38:00;;;;;;;5.07;4.43;;;;;;;;;;10280662;28;19914;-79
2022/06/30 18:43:03;;;;;;;6.22;4.70;;;;;;;;;;10283310;28;20071;-79
2022/06/30 18:48:04;;;;;;;7.25;4.75;;;;;;;;;;10303090;28;20047;-80
2022/06/30 18:53:04;;;;;;;6.25;5.65;;;;;;;;;;10304807;28;20070;-79
2022/06/30 18:58:04;;;;;;;6.87;5.60;;;;;;;;;;10310923;28;20119;-79
2022/06/30 19:03:05;;;;;;;5.83;4.73;;;;;;;;;;10278165;28;20037;-78
2022/06/30 19:08:05;;;;;;;5.13;4.27;;;;;;;;;;10274012;28;20452;-81
2022/06/30 19:13:07;;;;;;;7.75;4.50;;;;;;;;;;10266446;28;20138;-78
2022/06/30 19:18:09;;;;;;;;;;;;;;;;;;10280650;28;20478;-78
2022/06/30 19:23:09;;;;;;;5.88;5.28;;;;;;;;;;10291649;28;19937;-80
2022/06/30 19:28:10;;;;;;;6.37;5.77;;;;;;;;;;10297707;28;20047;-77
2022/06/30 19:33:13;;;;;;;6.80;5.30;;;;;;;;;;10285742;28;20035;-79
2022/06/30 19:38:14;;;;;;;6.40;5.50;;;;;;;;;;10282914;28;20043;-79
2022/06/30 19:43:14;;;;;;;7.07;5.10;;;;;;;;;;10289352;28;20314;-79
2022/06/30 19:48:16;;;;;;;6.53;5.90;;;;;;;;;;10284859;28;20074;-80
2022/06/30 19:53:16;;;;;;;;;;;;;;;;;;10299568;28;20104;-79
2022/06/30 19:58:17;;;;;;;7.00;5.87;;;;;;;;;;10319717;28;19937;-79
2022/06/30 20:14:00;;;;;;;7.63;5.38;;;;;;;;;;10277494;28;20154;-77
2022/06/30 20:19:00;;;;;;;7.43;6.00;;;;;;;;;;10278071;28;20123;-76
2022/06/30 20:24:01;;;;;;;5.83;5.23;;;;;;;;;;10278876;28;20094;-76
2022/06/30 20:29:03;;;;;;;7.20;5.40;;;;;;;;;;10279628;28;20098;-77
2022/06/30 20:34:03;;;;;;;6.53;5.32;;;;;;;;;;10276756;28;20039;-77
2022/06/30 20:39:03;;;;;;;7.33;5.20;;;;;;;;;;10272405;28;20057;-77
2022/06/30 20:44:05;;;;;;;8.80;6.77;;;;;;;;;;10254026;28;20070;-76
2022/06/30 20:54:26;;;;;;;5.80;5.13;;;;;;;;;;10285273;28;20568;-78
2022/06/30 20:59:26;;;;;;;7.28;5.70;;;;;;;;;;10292057;28;20043;-77
2022/06/30 21:04:28;;;;;;;6.20;5.23;;;;;;;;;;10271725;28;20039;-77
2022/06/30 21:09:28;;;;;;;;;;;;;;;;;;10270661;28;20553;-76
2022/06/30 21:14:29;;;;;;;5.77;5.27;;;;;;;;;;10271118;28;19914;-77
2022/06/30 21:19:29;;;;;;;5.73;5.10;;;;;;;;;;10264191;28;20431;-77
2022/06/30 21:24:30;;;;;;;6.50;5.47;;;;;;;;;;10272779;28;20042;-77
2022/06/30 21:29:30;;;;;;;7.40;5.00;;;;;;;;;;10271301;28;20150;-76
2022/06/30 21:34:33;;;;;;;5.60;5.00;;;;;;;;;;10281414;28;20094;-76
2022/06/30 21:39:34;;;;;;;7.63;5.18;;;;;;;;;;10287181;28;20047;-77
2022/06/30 21:44:35;;;;;;;6.80;5.53;;;;;;;;;;10272103;28;20039;-78
2022/06/30 21:49:36;;;;;;;;;;;;;;;;;;10281835;28;20071;-77
2022/06/30 21:54:36;;;;;;;7.03;5.00;;;;;;;;;;10279627;28;19922;-77
2022/06/30 21:59:37;;;;;;;6.45;5.78;;;;;;;;;;10281290;28;20051;-77
2022/06/30 22:04:37;;;;;;;5.17;4.77;;;;;;;;;;10285228;28;20094;-78
2022/06/30 22:09:38;;;;;;;6.18;5.57;;;;;;;;;;10260901;28;20054;-79
2022/06/30 22:14:39;;;;;;;6.22;5.57;;;;;;;;;;10298830;28;20062;-78
2022/06/30 22:19:39;;;;;;;6.13;5.55;;;;;;;;;;10271673;28;20082;-78
2022/06/30 22:24:40;;;;;;;6.85;5.65;;;;;;;;;;10281229;28;20051;-79
2022/06/30 22:29:40;;;;;;;6.78;5.47;;;;;;;;;;10283821;28;20059;-78
2022/06/30 22:34:41;;;;;;;6.03;5.43;;;;;;;;;;10273647;28;20054;-78
2022/06/30 22:39:41;;;;;;;6.05;5.55;;;;;;;;;;10265788;28;20075;-77
2022/06/30 22:44:42;;;;;;;6.70;5.80;;;;;;;;;;10264995;28;20042;-77
2022/06/30 22:49:42;;;;;;;10.40;6.53;;;;;;;;;;10253086;28;20093;-81
2022/06/30 22:54:43;;;;;;;6.20;5.60;;;;;;;;;;10278215;28;20054;-78
2022/06/30 22:59:45;;;;;;;6.55;5.20;;;;;;;;;;10275091;28;20047;-80
2022/06/30 23:04:48;;;;;;;4.55;4.15;;;;;;;;;;10302559;28;20105;-77
2022/06/30 23:09:49;;;;;;;5.20;4.55;;;;;;;;;;10275933;28;20055;-76
2022/06/30 23:14:49;;;;;;;6.73;4.10;;;;;;;;;;10265729;28;20846;-78
2022/06/30 23:19:50;;;;;;;4.53;3.60;;;;;;;;;;10277446;28;20283;-76
2022/06/30 23:24:50;;;;;;;5.03;3.58;;;;;;;;;;10239550;28;20282;-77
2022/06/30 23:29:51;;;;;;;4.55;3.65;;;;;;;;;;10266052;28;20705;-77
2022/06/30 23:34:51;;;;;;;4.68;3.60;;;;;;;;;;10271961;28;20050;-77
2022/06/30 23:39:52;;;;;;;7.10;4.43;;;;;;;;;;10270235;28;20109;-76
2022/06/30 23:44:52;;;;;;;5.75;4.50;;;;;;;;;;10276286;28;20047;-77
2022/06/30 23:49:53;;;;;;;4.65;3.88;;;;;;;;;;10276966;28;20123;-76
2022/06/30 23:54:53;;;;;;;7.53;4.88;;;;;;;;;;10280794;28;20179;-76
2022/06/30 23:59:53;;;;;;;7.57;5.13;;;;;;;;;;10278001;28;20066;-75
